sensor_id;sensor_type;location;lat;lon;timestamp;pressure;altitude;pressure_sealevel;temperature;humidity
62438;BME280;48481;0.000;0.000;2023-06-05T00:00:58;101984.94;;;13.19;67.44
62438;BME280;48481;0.000;0.000;2023-06-05T00:03:23;101983.13;;;13.19;67.39
62438;BME280;48481;0.000;0.000;2023-06-05T00:05:52;101985.84;;;13.27;67.05
62438;BME280;48481;0.000;0.000;2023-06-05T00:08:17;101994.97;;;13.25;67.40
62438;BME280;48481;0.000;0.000;2023-06-05T00:10:43;101988.53;;;13.00;68.27
62438;BME280;48481;0.000;0.000;2023-06-05T00:13:08;101996.81;;;12.79;69.00
62438;BME280;48481;0.000;0.000;2023-06-05T00:15:34;101992.19;;;12.63;69.73
62438;BME280;48481;0.000;0.000;2023-06-05T00:18:01;101992.03;;;12.65;69.59
62438;BME280;48481;0.000;0.000;2023-06-05T00:20:29;101998.94;;;12.58;70.19
62438;BME280;48481;0.000;0.000;2023-06-05T00:22:54;102000.50;;;12.51;70.27
62438;BME280;48481;0.000;0.000;2023-06-05T00:25:20;102003.16;;;12.51;70.24
62438;BME280;48481;0.000;0.000;2023-06-05T00:27:45;102001.31;;;12.24;71.45
62438;BME280;48481;0.000;0.000;2023-06-05T00:30:11;102004.41;;;12.19;71.67
62438;BME280;48481;0.000;0.000;2023-06-05T00:32:37;102006.59;;;12.06;72.05
62438;BME280;48481;0.000;0.000;2023-06-05T00:35:02;102008.41;;;12.33;71.05
62438;BME280;48481;0.000;0.000;2023-06-05T00:37:28;102005.34;;;12.37;70.97
62438;BME280;48481;0.000;0.000;2023-06-05T00:39:53;102005.19;;;12.02;72.11
62438;BME280;48481;0.000;0.000;2023-06-05T00:42:19;102003.84;;;11.88;72.83
62438;BME280;48481;0.000;0.000;2023-06-05T00:44:44;102007.91;;;11.63;73.76
62438;BME280;48481;0.000;0.000;2023-06-05T00:47:11;102006.38;;;11.61;74.05
62438;BME280;48481;0.000;0.000;2023-06-05T00:49:37;102006.09;;;11.64;73.79
62438;BME280;48481;0.000;0.000;2023-06-05T00:52:02;102008.63;;;11.75;73.17
62438;BME280;48481;0.000;0.000;2023-06-05T00:54:28;102000.81;;;11.54;74.13
62438;BME280;48481;0.000;0.000;2023-06-05T00:56:55;101997.91;;;11.48;74.09
62438;BME280;48481;0.000;0.000;2023-06-05T00:59:20;101991.63;;;11.49;74.21
62438;BME280;48481;0.000;0.000;2023-06-05T01:01:46;101992.41;;;11.68;73.71
62438;BME280;48481;0.000;0.000;2023-06-05T01:04:13;101983.91;;;11.74;73.28
62438;BME280;48481;0.000;0.000;2023-06-05T01:06:38;101995.06;;;11.88;72.71
62438;BME280;48481;0.000;0.000;2023-06-05T01:09:06;101994.81;;;11.71;73.18
62438;BME280;48481;0.000;0.000;2023-06-05T01:14:18;101984.75;;;11.65;73.43
62438;BME280;48481;0.000;0.000;2023-06-05T01:16:52;101987.56;;;11.54;74.17
62438;BME280;48481;0.000;0.000;2023-06-05T01:19:19;101988.97;;;11.49;74.14
62438;BME280;48481;0.000;0.000;2023-06-05T01:21:45;101986.28;;;11.58;73.64
62438;BME280;48481;0.000;0.000;2023-06-05T01:24:10;101986.47;;;11.37;74.37
62438;BME280;48481;0.000;0.000;2023-06-05T01:30:05;101985.22;;;11.41;74.47
62438;BME280;48481;0.000;0.000;2023-06-05T01:35:19;101969.75;;;11.37;74.50
62438;BME280;48481;0.000;0.000;2023-06-05T01:37:48;101971.56;;;11.27;75.20
62438;BME280;48481;0.000;0.000;2023-06-05T01:40:20;101977.44;;;11.21;75.48
62438;BME280;48481;0.000;0.000;2023-06-05T01:42:47;101978.69;;;11.26;75.12
62438;BME280;48481;0.000;0.000;2023-06-05T01:45:14;101977.16;;;11.33;74.99
62438;BME280;48481;0.000;0.000;2023-06-05T01:47:41;101973.69;;;11.14;75.80
62438;BME280;48481;0.000;0.000;2023-06-05T01:50:08;101975.78;;;11.10;75.74
62438;BME280;48481;0.000;0.000;2023-06-05T01:52:38;101973.25;;;11.18;75.32
62438;BME280;48481;0.000;0.000;2023-06-05T01:55:06;101978.97;;;11.23;75.24
62438;BME280;48481;0.000;0.000;2023-06-05T01:57:31;101974.25;;;11.17;75.27
62438;BME280;48481;0.000;0.000;2023-06-05T01:59:59;101969.50;;;11.11;75.58
62438;BME280;48481;0.000;0.000;2023-06-05T02:02:26;101970.47;;;11.20;75.22
62438;BME280;48481;0.000;0.000;2023-06-05T02:04:54;101972.28;;;11.09;75.48
62438;BME280;48481;0.000;0.000;2023-06-05T02:07:20;101965.47;;;11.07;75.69
62438;BME280;48481;0.000;0.000;2023-06-05T02:09:46;101962.78;;;10.88;76.22
62438;BME280;48481;0.000;0.000;2023-06-05T02:12:11;101954.16;;;10.95;76.21
62438;BME280;48481;0.000;0.000;2023-06-05T02:14:40;101955.69;;;11.07;75.98
62438;BME280;48481;0.000;0.000;2023-06-05T02:17:12;101963.66;;;11.07;75.80
62438;BME280;48481;0.000;0.000;2023-06-05T02:19:40;101961.69;;;11.09;75.67
62438;BME280;48481;0.000;0.000;2023-06-05T02:22:05;101956.25;;;11.11;75.64
62438;BME280;48481;0.000;0.000;2023-06-05T02:24:31;101954.44;;;10.92;76.22
62438;BME280;48481;0.000;0.000;2023-06-05T02:26:56;101958.19;;;10.80;76.88
62438;BME280;48481;0.000;0.000;2023-06-05T02:29:22;101947.47;;;10.91;76.52
62438;BME280;48481;0.000;0.000;2023-06-05T02:31:48;101957.63;;;10.86;76.53
62438;BME280;48481;0.000;0.000;2023-06-05T02:34:13;101951.91;;;10.81;76.55
62438;BME280;48481;0.000;0.000;2023-06-05T02:36:38;101951.09;;;10.80;76.77
62438;BME280;48481;0.000;0.000;2023-06-05T02:39:04;101947.47;;;10.72;77.03
62438;BME280;48481;0.000;0.000;2023-06-05T02:41:32;101943.97;;;10.71;77.29
62438;BME280;48481;0.000;0.000;2023-06-05T02:43:58;101951.50;;;10.76;76.99
62438;BME280;48481;0.000;0.000;2023-06-05T02:46:24;101949.97;;;10.83;76.88
62438;BME280;48481;0.000;0.000;2023-06-05T02:48:53;101953.03;;;10.59;78.11
62438;BME280;48481;0.000;0.000;2023-06-05T02:51:19;101948.16;;;10.74;76.68
62438;BME280;48481;0.000;0.000;2023-06-05T02:53:44;101943.00;;;10.53;77.58
62438;BME280;48481;0.000;0.000;2023-06-05T02:56:09;101936.84;;;10.53;77.68
62438;BME280;48481;0.000;0.000;2023-06-05T02:58:35;101942.97;;;10.43;78.31
62438;BME280;48481;0.000;0.000;2023-06-05T03:01:01;101945.50;;;10.45;77.88
62438;BME280;48481;0.000;0.000;2023-06-05T03:03:33;101938.13;;;10.58;77.49
62438;BME280;48481;0.000;0.000;2023-06-05T03:06:00;101939.94;;;10.58;77.32
62438;BME280;48481;0.000;0.000;2023-06-05T03:08:37;101943.97;;;10.71;76.97
62438;BME280;48481;0.000;0.000;2023-06-05T03:11:03;101933.94;;;10.85;76.31
62438;BME280;48481;0.000;0.000;2023-06-05T03:13:30;101930.47;;;10.65;76.86
62438;BME280;48481;0.000;0.000;2023-06-05T03:15:57;101938.13;;;10.58;77.72
62438;BME280;48481;0.000;0.000;2023-06-05T03:18:25;101930.59;;;10.73;77.07
62438;BME280;48481;0.000;0.000;2023-06-05T03:20:52;101930.72;;;10.52;78.25
62438;BME280;48481;0.000;0.000;2023-06-05T03:23:27;101927.66;;;10.47;78.16
62438;BME280;48481;0.000;0.000;2023-06-05T03:25:54;101927.03;;;10.24;79.31
62438;BME280;48481;0.000;0.000;2023-06-05T03:28:21;101926.13;;;10.44;78.82
62438;BME280;48481;0.000;0.000;2023-06-05T03:30:47;101931.97;;;10.48;78.41
62438;BME280;48481;0.000;0.000;2023-06-05T03:33:13;101935.06;;;10.53;78.50
62438;BME280;48481;0.000;0.000;2023-06-05T03:35:39;101931.50;;;10.33;79.40
62438;BME280;48481;0.000;0.000;2023-06-05T03:38:05;101926.22;;;10.33;79.39
62438;BME280;48481;0.000;0.000;2023-06-05T03:40:31;101932.25;;;10.55;78.76
62438;BME280;48481;0.000;0.000;2023-06-05T03:42:57;101932.81;;;10.48;78.49
62438;BME280;48481;0.000;0.000;2023-06-05T03:45:22;101927.25;;;10.52;78.77
62438;BME280;48481;0.000;0.000;2023-06-05T03:47:47;101927.09;;;10.43;78.90
62438;BME280;48481;0.000;0.000;2023-06-05T03:50:14;101922.09;;;10.50;78.67
62438;BME280;48481;0.000;0.000;2023-06-05T03:52:40;101931.84;;;10.69;78.25
62438;BME280;48481;0.000;0.000;2023-06-05T03:55:07;101923.06;;;10.49;78.80
62438;BME280;48481;0.000;0.000;2023-06-05T03:57:36;101927.94;;;10.44;79.12
62438;BME280;48481;0.000;0.000;2023-06-05T04:00:07;101926.84;;;10.75;78.09
62438;BME280;48481;0.000;0.000;2023-06-05T04:02:36;101932.13;;;10.85;77.92
62438;BME280;48481;0.000;0.000;2023-06-05T04:05:02;101934.63;;;10.77;77.95
62438;BME280;48481;0.000;0.000;2023-06-05T04:07:29;101930.19;;;10.77;77.48
62438;BME280;48481;0.000;0.000;2023-06-05T04:09:54;101934.34;;;10.70;78.33
62438;BME280;48481;0.000;0.000;2023-06-05T04:12:20;101931.28;;;10.65;78.23
62438;BME280;48481;0.000;0.000;2023-06-05T04:14:46;101927.13;;;10.63;78.74
62438;BME280;48481;0.000;0.000;2023-06-05T04:17:11;101939.66;;;10.80;77.79
62438;BME280;48481;0.000;0.000;2023-06-05T04:19:39;101937.16;;;10.78;78.36
62438;BME280;48481;0.000;0.000;2023-06-05T04:22:04;101932.41;;;11.01;77.29
62438;BME280;48481;0.000;0.000;2023-06-05T04:24:30;101937.84;;;11.19;76.72
62438;BME280;48481;0.000;0.000;2023-06-05T04:26:56;101938.81;;;10.89;77.80
62438;BME280;48481;0.000;0.000;2023-06-05T04:29:21;101936.56;;;11.04;77.12
62438;BME280;48481;0.000;0.000;2023-06-05T04:31:47;101941.19;;;11.11;76.59
62438;BME280;48481;0.000;0.000;2023-06-05T04:34:13;101952.75;;;10.82;78.20
62438;BME280;48481;0.000;0.000;2023-06-05T04:36:42;101944.41;;;10.67;78.80
62438;BME280;48481;0.000;0.000;2023-06-05T04:39:07;101947.59;;;10.70;78.68
62438;BME280;48481;0.000;0.000;2023-06-05T04:41:39;101937.41;;;10.95;77.81
62438;BME280;48481;0.000;0.000;2023-06-05T04:44:11;101942.16;;;11.01;77.60
62438;BME280;48481;0.000;0.000;2023-06-05T04:46:37;101932.53;;;11.00;77.59
62438;BME280;48481;0.000;0.000;2023-06-05T04:49:06;101938.25;;;11.24;76.40
62438;BME280;48481;0.000;0.000;2023-06-05T04:51:31;101930.72;;;11.20;76.79
62438;BME280;48481;0.000;0.000;2023-06-05T04:53:56;101941.28;;;11.39;76.51
62438;BME280;48481;0.000;0.000;2023-06-05T04:56:22;101942.38;;;11.46;75.98
62438;BME280;48481;0.000;0.000;2023-06-05T04:58:47;101939.19;;;11.42;76.19
62438;BME280;48481;0.000;0.000;2023-06-05T05:01:15;101941.84;;;11.33;76.33
62438;BME280;48481;0.000;0.000;2023-06-05T05:03:41;101946.28;;;11.52;75.54
62438;BME280;48481;0.000;0.000;2023-06-05T05:06:08;101940.66;;;11.64;75.23
62438;BME280;48481;0.000;0.000;2023-06-05T05:08:33;101940.09;;;11.61;75.41
62438;BME280;48481;0.000;0.000;2023-06-05T05:10:58;101931.72;;;11.65;75.53
62438;BME280;48481;0.000;0.000;2023-06-05T05:13:24;101933.66;;;11.63;75.52
62438;BME280;48481;0.000;0.000;2023-06-05T05:15:49;101938.28;;;11.61;75.60
62438;BME280;48481;0.000;0.000;2023-06-05T05:18:18;101939.81;;;11.64;75.54
62438;BME280;48481;0.000;0.000;2023-06-05T05:20:43;101933.63;;;11.92;74.78
62438;BME280;48481;0.000;0.000;2023-06-05T05:23:09;101936.13;;;11.94;74.62
62438;BME280;48481;0.000;0.000;2023-06-05T05:25:36;101936.00;;;12.13;73.61
62438;BME280;48481;0.000;0.000;2023-06-05T05:28:02;101932.97;;;12.35;73.32
62438;BME280;48481;0.000;0.000;2023-06-05T05:30:27;101934.88;;;12.43;72.75
62438;BME280;48481;0.000;0.000;2023-06-05T05:32:55;101938.63;;;11.95;74.48
62438;BME280;48481;0.000;0.000;2023-06-05T05:35:20;101944.06;;;12.21;73.66
62438;BME280;48481;0.000;0.000;2023-06-05T05:37:45;101937.47;;;12.53;72.98
62438;BME280;48481;0.000;0.000;2023-06-05T05:40:11;101941.63;;;12.91;71.45
62438;BME280;48481;0.000;0.000;2023-06-05T05:42:37;101941.63;;;13.26;70.29
62438;BME280;48481;0.000;0.000;2023-06-05T05:45:02;101944.34;;;13.35;69.97
62438;BME280;48481;0.000;0.000;2023-06-05T05:47:28;101941.41;;;13.20;70.64
62438;BME280;48481;0.000;0.000;2023-06-05T05:49:53;101942.25;;;13.20;70.84
62438;BME280;48481;0.000;0.000;2023-06-05T05:52:18;101952.22;;;13.00;71.45
62438;BME280;48481;0.000;0.000;2023-06-05T05:54:45;101942.63;;;13.08;71.66
62438;BME280;48481;0.000;0.000;2023-06-05T05:57:11;101937.63;;;13.22;70.75
62438;BME280;48481;0.000;0.000;2023-06-05T05:59:36;101952.56;;;13.23;71.22
62438;BME280;48481;0.000;0.000;2023-06-05T06:02:02;101956.97;;;13.32;70.90
62438;BME280;48481;0.000;0.000;2023-06-05T06:04:33;101952.47;;;13.33;70.92
62438;BME280;48481;0.000;0.000;2023-06-05T06:06:59;101939.13;;;13.51;70.18
62438;BME280;48481;0.000;0.000;2023-06-05T06:09:26;101950.91;;;13.48;70.80
62438;BME280;48481;0.000;0.000;2023-06-05T06:11:51;101950.19;;;13.38;71.31
62438;BME280;48481;0.000;0.000;2023-06-05T06:14:23;101955.81;;;13.35;71.72
62438;BME280;48481;0.000;0.000;2023-06-05T06:16:49;101957.03;;;13.67;71.24
62438;BME280;48481;0.000;0.000;2023-06-05T06:19:18;101957.28;;;13.81;70.60
62438;BME280;48481;0.000;0.000;2023-06-05T06:21:48;101952.09;;;14.14;68.99
62438;BME280;48481;0.000;0.000;2023-06-05T06:24:13;101952.59;;;13.75;69.99
62438;BME280;48481;0.000;0.000;2023-06-05T06:26:41;101950.94;;;14.16;68.86
62438;BME280;48481;0.000;0.000;2023-06-05T06:29:07;101957.16;;;13.65;70.67
62438;BME280;48481;0.000;0.000;2023-06-05T06:31:33;101957.31;;;13.63;70.95
62438;BME280;48481;0.000;0.000;2023-06-05T06:33:59;101944.34;;;13.86;70.43
62438;BME280;48481;0.000;0.000;2023-06-05T06:36:25;101951.16;;;13.89;70.32
62438;BME280;48481;0.000;0.000;2023-06-05T06:38:51;101957.50;;;13.96;69.99
62438;BME280;48481;0.000;0.000;2023-06-05T06:41:17;101956.03;;;14.02;70.03
62438;BME280;48481;0.000;0.000;2023-06-05T06:43:42;101947.03;;;14.37;68.87
62438;BME280;48481;0.000;0.000;2023-06-05T06:46:08;101953.53;;;14.34;68.49
62438;BME280;48481;0.000;0.000;2023-06-05T06:48:33;101953.00;;;14.31;68.58
62438;BME280;48481;0.000;0.000;2023-06-05T06:50:59;101954.28;;;14.26;68.90
62438;BME280;48481;0.000;0.000;2023-06-05T06:53:25;101948.09;;;14.60;68.11
62438;BME280;48481;0.000;0.000;2023-06-05T06:55:50;101945.97;;;14.72;68.34
62438;BME280;48481;0.000;0.000;2023-06-05T06:58:16;101950.44;;;14.63;68.05
62438;BME280;48481;0.000;0.000;2023-06-05T07:00:43;101947.28;;;14.68;68.35
62438;BME280;48481;0.000;0.000;2023-06-05T07:03:08;101951.16;;;14.98;66.26
62438;BME280;48481;0.000;0.000;2023-06-05T07:05:35;101946.94;;;15.44;64.93
62438;BME280;48481;0.000;0.000;2023-06-05T07:08:00;101948.94;;;15.42;64.57
62438;BME280;48481;0.000;0.000;2023-06-05T07:10:27;101955.63;;;15.62;63.73
62438;BME280;48481;0.000;0.000;2023-06-05T07:12:53;101953.03;;;15.93;63.05
62438;BME280;48481;0.000;0.000;2023-06-05T07:15:19;101947.75;;;15.77;62.62
62438;BME280;48481;0.000;0.000;2023-06-05T07:17:45;101952.59;;;15.73;62.85
62438;BME280;48481;0.000;0.000;2023-06-05T07:20:10;101949.78;;;15.67;62.01
62438;BME280;48481;0.000;0.000;2023-06-05T07:22:36;101950.13;;;16.11;62.34
62438;BME280;48481;0.000;0.000;2023-06-05T07:25:01;101948.31;;;16.03;62.10
62438;BME280;48481;0.000;0.000;2023-06-05T07:27:27;101955.94;;;16.54;60.17
62438;BME280;48481;0.000;0.000;2023-06-05T07:29:55;101953.13;;;16.47;58.90
62438;BME280;48481;0.000;0.000;2023-06-05T07:32:21;101950.13;;;16.73;57.70
62438;BME280;48481;0.000;0.000;2023-06-05T07:34:46;101952.53;;;16.37;60.22
62438;BME280;48481;0.000;0.000;2023-06-05T07:37:12;101949.75;;;15.75;61.77
62438;BME280;48481;0.000;0.000;2023-06-05T07:39:38;101941.41;;;16.17;60.62
62438;BME280;48481;0.000;0.000;2023-06-05T07:42:03;101943.84;;;16.35;59.59
62438;BME280;48481;0.000;0.000;2023-06-05T07:44:29;101940.16;;;16.67;58.07
62438;BME280;48481;0.000;0.000;2023-06-05T07:46:55;101945.03;;;16.86;57.43
62438;BME280;48481;0.000;0.000;2023-06-05T07:49:20;101938.50;;;17.11;56.18
62438;BME280;48481;0.000;0.000;2023-06-05T07:51:48;101937.19;;;17.60;55.21
62438;BME280;48481;0.000;0.000;2023-06-05T07:54:15;101942.22;;;17.78;54.38
62438;BME280;48481;0.000;0.000;2023-06-05T07:56:41;101941.59;;;16.77;56.12
62438;BME280;48481;0.000;0.000;2023-06-05T07:59:07;101945.91;;;16.78;56.65
62438;BME280;48481;0.000;0.000;2023-06-05T08:01:35;101942.31;;;16.94;55.43
62438;BME280;48481;0.000;0.000;2023-06-05T08:04:04;101941.28;;;17.33;54.02
62438;BME280;48481;0.000;0.000;2023-06-05T08:06:30;101946.00;;;16.62;55.93
62438;BME280;48481;0.000;0.000;2023-06-05T08:08:58;101940.03;;;17.06;55.99
62438;BME280;48481;0.000;0.000;2023-06-05T08:11:24;101935.69;;;17.42;54.21
62438;BME280;48481;0.000;0.000;2023-06-05T08:13:50;101942.22;;;17.55;54.48
62438;BME280;48481;0.000;0.000;2023-06-05T08:16:15;101942.66;;;17.66;54.15
62438;BME280;48481;0.000;0.000;2023-06-05T08:18:41;101939.69;;;17.61;53.95
62438;BME280;48481;0.000;0.000;2023-06-05T08:21:07;101930.88;;;18.12;51.87
62438;BME280;48481;0.000;0.000;2023-06-05T08:23:32;101934.63;;;18.47;51.15
62438;BME280;48481;0.000;0.000;2023-06-05T08:25:58;101933.56;;;18.26;51.85
62438;BME280;48481;0.000;0.000;2023-06-05T08:28:24;101934.94;;;17.49;52.68
62438;BME280;48481;0.000;0.000;2023-06-05T08:30:49;101931.41;;;17.86;52.51
62438;BME280;48481;0.000;0.000;2023-06-05T08:33:18;101930.09;;;17.96;51.36
62438;BME280;48481;0.000;0.000;2023-06-05T08:35:43;101926.63;;;18.32;49.74
62438;BME280;48481;0.000;0.000;2023-06-05T08:38:09;101916.38;;;18.78;48.87
62438;BME280;48481;0.000;0.000;2023-06-05T08:40:34;101928.41;;;18.25;49.75
62438;BME280;48481;0.000;0.000;2023-06-05T08:43:02;101917.56;;;18.54;50.68
62438;BME280;48481;0.000;0.000;2023-06-05T08:45:27;101918.56;;;18.89;49.27
62438;BME280;48481;0.000;0.000;2023-06-05T08:47:54;101916.06;;;19.09;49.63
62438;BME280;48481;0.000;0.000;2023-06-05T08:50:19;101910.31;;;19.47;47.65
62438;BME280;48481;0.000;0.000;2023-06-05T08:52:45;101915.66;;;19.12;49.38
62438;BME280;48481;0.000;0.000;2023-06-05T08:55:14;101909.44;;;18.62;50.52
62438;BME280;48481;0.000;0.000;2023-06-05T08:57:41;101906.91;;;18.61;50.02
62438;BME280;48481;0.000;0.000;2023-06-05T09:00:07;101902.78;;;18.80;50.85
62438;BME280;48481;0.000;0.000;2023-06-05T09:02:37;101905.66;;;19.27;48.05
62438;BME280;48481;0.000;0.000;2023-06-05T09:05:03;101897.41;;;19.57;46.49
62438;BME280;48481;0.000;0.000;2023-06-05T09:07:29;101905.06;;;19.32;47.04
62438;BME280;48481;0.000;0.000;2023-06-05T09:09:56;101898.72;;;19.40;47.06
62438;BME280;48481;0.000;0.000;2023-06-05T09:12:22;101901.13;;;20.04;45.76
62438;BME280;48481;0.000;0.000;2023-06-05T09:14:49;101896.00;;;19.61;46.56
62438;BME280;48481;0.000;0.000;2023-06-05T09:17:16;101904.19;;;18.97;47.42
62438;BME280;48481;0.000;0.000;2023-06-05T09:19:43;101896.41;;;19.37;46.98
62438;BME280;48481;0.000;0.000;2023-06-05T09:22:10;101895.16;;;19.32;47.17
62438;BME280;48481;0.000;0.000;2023-06-05T09:24:38;101897.72;;;19.47;46.05
62438;BME280;48481;0.000;0.000;2023-06-05T09:27:08;101894.22;;;19.47;47.48
62438;BME280;48481;0.000;0.000;2023-06-05T09:29:36;101897.47;;;19.63;46.57
62438;BME280;48481;0.000;0.000;2023-06-05T09:32:16;101890.16;;;19.99;45.48
62438;BME280;48481;0.000;0.000;2023-06-05T09:34:42;101895.97;;;20.09;46.29
62438;BME280;48481;0.000;0.000;2023-06-05T09:37:11;101893.78;;;20.19;44.51
62438;BME280;48481;0.000;0.000;2023-06-05T09:39:40;101897.94;;;20.35;44.16
62438;BME280;48481;0.000;0.000;2023-06-05T09:42:08;101887.47;;;20.66;43.37
62438;BME280;48481;0.000;0.000;2023-06-05T09:44:34;101887.91;;;20.96;43.10
62438;BME280;48481;0.000;0.000;2023-06-05T09:47:03;101891.81;;;21.33;43.33
62438;BME280;48481;0.000;0.000;2023-06-05T09:52:03;101888.47;;;20.45;44.44
62438;BME280;48481;0.000;0.000;2023-06-05T09:54:30;101890.28;;;19.77;45.88
62438;BME280;48481;0.000;0.000;2023-06-05T09:56:58;101882.63;;;20.29;45.27
62438;BME280;48481;0.000;0.000;2023-06-05T09:59:27;101882.94;;;21.00;43.87
62438;BME280;48481;0.000;0.000;2023-06-05T10:01:54;101878.00;;;20.09;43.83
62438;BME280;48481;0.000;0.000;2023-06-05T10:04:22;101882.00;;;20.33;44.28
62438;BME280;48481;0.000;0.000;2023-06-05T10:06:50;101880.88;;;20.82;43.23
62438;BME280;48481;0.000;0.000;2023-06-05T10:09:16;101878.59;;;21.05;43.51
62438;BME280;48481;0.000;0.000;2023-06-05T10:11:42;101873.81;;;21.07;43.31
62438;BME280;48481;0.000;0.000;2023-06-05T10:14:09;101875.28;;;20.97;43.48
62438;BME280;48481;0.000;0.000;2023-06-05T10:16:35;101875.50;;;20.82;44.05
62438;BME280;48481;0.000;0.000;2023-06-05T10:19:03;101867.34;;;21.41;43.02
62438;BME280;48481;0.000;0.000;2023-06-05T10:21:29;101873.59;;;21.35;42.04
62438;BME280;48481;0.000;0.000;2023-06-05T10:24:05;101870.53;;;20.92;42.86
62438;BME280;48481;0.000;0.000;2023-06-05T10:31:56;101867.81;;;20.52;43.17
62438;BME280;48481;0.000;0.000;2023-06-05T10:37:11;101866.19;;;20.84;42.95
62438;BME280;48481;0.000;0.000;2023-06-05T10:39:48;101854.13;;;21.27;42.83
62438;BME280;48481;0.000;0.000;2023-06-05T10:42:25;101859.28;;;21.21;42.56
62438;BME280;48481;0.000;0.000;2023-06-05T10:44:51;101847.81;;;21.66;41.76
62438;BME280;48481;0.000;0.000;2023-06-05T10:52:45;101842.50;;;21.39;40.62
62438;BME280;48481;0.000;0.000;2023-06-05T10:55:13;101843.38;;;21.00;41.37
62438;BME280;48481;0.000;0.000;2023-06-05T10:58:11;101842.50;;;21.39;39.99
62438;BME280;48481;0.000;0.000;2023-06-05T11:06:18;101829.97;;;22.16;38.85
62438;BME280;48481;0.000;0.000;2023-06-05T11:09:10;101828.75;;;22.43;38.23
62438;BME280;48481;0.000;0.000;2023-06-05T11:12:13;101826.09;;;22.62;36.94
62438;BME280;48481;0.000;0.000;2023-06-05T11:14:48;101822.53;;;22.68;36.84
62438;BME280;48481;0.000;0.000;2023-06-05T11:17:45;101815.38;;;22.55;36.73
62438;BME280;48481;0.000;0.000;2023-06-05T11:27:59;101818.31;;;22.22;37.66
62438;BME280;48481;0.000;0.000;2023-06-05T11:30:28;101817.00;;;22.31;38.27
62438;BME280;48481;0.000;0.000;2023-06-05T11:32:54;101808.69;;;22.58;37.91
62438;BME280;48481;0.000;0.000;2023-06-05T11:35:25;101804.53;;;22.87;36.55
62438;BME280;48481;0.000;0.000;2023-06-05T11:38:09;101800.72;;;22.44;37.05
62438;BME280;48481;0.000;0.000;2023-06-05T11:40:35;101797.97;;;23.01;36.41
62438;BME280;48481;0.000;0.000;2023-06-05T11:43:11;101803.59;;;23.18;35.67
62438;BME280;48481;0.000;0.000;2023-06-05T11:45:38;101794.97;;;23.46;35.62
62438;BME280;48481;0.000;0.000;2023-06-05T11:48:11;101790.97;;;23.30;35.64
62438;BME280;48481;0.000;0.000;2023-06-05T11:50:38;101793.56;;;23.43;35.91
62438;BME280;48481;0.000;0.000;2023-06-05T11:53:07;101794.88;;;23.34;36.21
62438;BME280;48481;0.000;0.000;2023-06-05T11:55:33;101789.09;;;23.67;34.85
62438;BME280;48481;0.000;0.000;2023-06-05T11:58:27;101791.13;;;23.53;34.44
62438;BME280;48481;0.000;0.000;2023-06-05T12:01:24;101785.56;;;23.96;34.88
62438;BME280;48481;0.000;0.000;2023-06-05T12:04:14;101780.50;;;23.88;34.21
62438;BME280;48481;0.000;0.000;2023-06-05T12:06:41;101787.59;;;23.71;33.67
62438;BME280;48481;0.000;0.000;2023-06-05T12:09:11;101788.28;;;23.12;34.46
62438;BME280;48481;0.000;0.000;2023-06-05T12:11:38;101771.75;;;23.75;33.89
62438;BME280;48481;0.000;0.000;2023-06-05T12:14:04;101779.41;;;23.78;32.94
62438;BME280;48481;0.000;0.000;2023-06-05T12:18:59;101779.28;;;23.54;32.69
62438;BME280;48481;0.000;0.000;2023-06-05T12:21:26;101771.75;;;23.75;33.76
62438;BME280;48481;0.000;0.000;2023-06-05T12:23:59;101774.66;;;24.03;30.83
62438;BME280;48481;0.000;0.000;2023-06-05T12:26:25;101766.59;;;24.15;30.95
62438;BME280;48481;0.000;0.000;2023-06-05T12:29:05;101769.72;;;24.42;32.11
62438;BME280;48481;0.000;0.000;2023-06-05T12:31:35;101776.28;;;24.34;31.18
62438;BME280;48481;0.000;0.000;2023-06-05T12:34:02;101769.31;;;24.26;30.10
62438;BME280;48481;0.000;0.000;2023-06-05T12:36:29;101769.72;;;24.42;30.38
62438;BME280;48481;0.000;0.000;2023-06-05T12:38:55;101762.84;;;23.56;30.55
62438;BME280;48481;0.000;0.000;2023-06-05T12:41:20;101767.53;;;22.44;33.30
62438;BME280;48481;0.000;0.000;2023-06-05T12:43:58;101762.81;;;22.58;33.11
62438;BME280;48481;0.000;0.000;2023-06-05T12:46:24;101757.81;;;22.86;32.66
62438;BME280;48481;0.000;0.000;2023-06-05T12:48:49;101755.59;;;23.01;32.72
62438;BME280;48481;0.000;0.000;2023-06-05T12:51:15;101755.63;;;23.31;31.79
62438;BME280;48481;0.000;0.000;2023-06-05T12:53:41;101755.81;;;23.96;31.12
62438;BME280;48481;0.000;0.000;2023-06-05T12:56:06;101759.34;;;24.27;30.48
62438;BME280;48481;0.000;0.000;2023-06-05T12:58:33;101755.50;;;24.04;31.14
62438;BME280;48481;0.000;0.000;2023-06-05T13:00:58;101755.53;;;24.16;32.04
62438;BME280;48481;0.000;0.000;2023-06-05T13:03:25;101752.78;;;24.46;31.70
62438;BME280;48481;0.000;0.000;2023-06-05T13:05:50;101756.84;;;24.25;31.16
62438;BME280;48481;0.000;0.000;2023-06-05T13:08:15;101744.38;;;24.24;31.95
62438;BME280;48481;0.000;0.000;2023-06-05T13:10:41;101740.53;;;24.32;31.66
62438;BME280;48481;0.000;0.000;2023-06-05T13:13:07;101740.97;;;23.87;32.17
62438;BME280;48481;0.000;0.000;2023-06-05T13:15:32;101746.63;;;24.27;32.21
62438;BME280;48481;0.000;0.000;2023-06-05T13:17:58;101729.34;;;24.28;31.38
62438;BME280;48481;0.000;0.000;2023-06-05T13:20:23;101738.72;;;24.14;30.98
62438;BME280;48481;0.000;0.000;2023-06-05T13:22:48;101726.19;;;23.90;31.30
62438;BME280;48481;0.000;0.000;2023-06-05T13:25:14;101728.19;;;24.36;31.54
62438;BME280;48481;0.000;0.000;2023-06-05T13:27:39;101724.06;;;24.33;30.43
62438;BME280;48481;0.000;0.000;2023-06-05T13:30:06;101727.78;;;24.21;30.26
62438;BME280;48481;0.000;0.000;2023-06-05T13:32:35;101723.47;;;23.90;30.53
62438;BME280;48481;0.000;0.000;2023-06-05T13:35:03;101722.00;;;24.17;31.78
62438;BME280;48481;0.000;0.000;2023-06-05T13:37:30;101728.28;;;23.88;30.84
62438;BME280;48481;0.000;0.000;2023-06-05T13:39:56;101722.75;;;24.36;31.04
62438;BME280;48481;0.000;0.000;2023-06-05T13:42:21;101722.25;;;23.26;33.63